createdAt,value
2023-05-15T00:01:16.372Z,17.24
2023-05-15T00:03:55.352Z,17.20
2023-05-15T00:06:31.451Z,17.19
2023-05-15T00:09:09.130Z,17.19
2023-05-15T00:11:46.187Z,17.18
2023-05-15T00:14:23.196Z,17.17
2023-05-15T00:16:53.192Z,17.17
2023-05-15T00:19:23.886Z,17.16
2023-05-15T00:22:02.064Z,17.15
2023-05-15T00:24:38.842Z,17.11
2023-05-15T00:27:17.267Z,17.16
2023-05-15T00:29:54.418Z,17.16
2023-05-15T00:32:28.327Z,17.17
2023-05-15T00:35:07.455Z,17.16
2023-05-15T00:37:38.616Z,17.16
2023-05-15T00:40:20.234Z,17.13
2023-05-15T00:42:53.783Z,17.12
2023-05-15T00:45:32.190Z,17.09
2023-05-15T00:48:11.489Z,17.05
2023-05-15T00:50:49.127Z,17.01
2023-05-15T00:53:27.406Z,16.96
2023-05-15T00:56:06.096Z,16.95
2023-05-15T00:58:44.960Z,16.92
2023-05-15T01:01:23.233Z,16.89
2023-05-15T01:04:01.185Z,16.89
2023-05-15T01:06:34.389Z,16.85
2023-05-15T01:09:15.906Z,16.91
2023-05-15T01:11:47.743Z,16.91
2023-05-15T01:14:25.548Z,16.93
2023-05-15T01:17:03.590Z,16.92
2023-05-15T01:19:34.056Z,16.90
2023-05-15T01:22:36.243Z,16.90
2023-05-15T01:26:06.370Z,16.91
2023-05-15T01:28:53.583Z,16.91
2023-05-15T01:31:31.957Z,16.88
2023-05-15T01:34:11.376Z,16.80
2023-05-15T01:36:59.305Z,16.84
2023-05-15T01:39:36.252Z,16.83
2023-05-15T01:42:21.357Z,16.78
2023-05-15T01:44:57.073Z,16.76
2023-05-15T01:47:49.005Z,16.76
2023-05-15T01:50:28.403Z,16.76
2023-05-15T01:53:08.679Z,16.75
2023-05-15T01:55:45.460Z,16.76
2023-05-15T01:58:25.026Z,16.75
2023-05-15T02:01:03.448Z,16.75
2023-05-15T02:03:35.329Z,16.75
2023-05-15T02:06:11.672Z,16.76
2023-05-15T02:08:51.047Z,16.78
2023-05-15T02:11:28.666Z,16.79
2023-05-15T02:14:07.188Z,16.79
2023-05-15T02:16:44.365Z,16.78
2023-05-15T02:19:14.719Z,16.79
2023-05-15T02:21:52.341Z,16.77
2023-05-15T02:24:29.591Z,16.78
2023-05-15T02:27:19.375Z,16.75
2023-05-15T02:30:04.807Z,16.74
2023-05-15T02:33:08.252Z,16.68
2023-05-15T02:36:00.034Z,16.70
2023-05-15T02:38:51.142Z,16.69
2023-05-15T02:41:29.333Z,16.68
2023-05-15T02:44:03.459Z,16.65
2023-05-15T02:46:41.761Z,16.54
2023-05-15T02:49:20.470Z,16.59
2023-05-15T02:51:58.613Z,16.56
2023-05-15T02:54:36.362Z,16.54
2023-05-15T02:57:13.543Z,16.51
2023-05-15T02:59:50.955Z,16.49
2023-05-15T03:02:28.308Z,16.50
2023-05-15T03:05:06.540Z,16.47
2023-05-15T03:07:44.449Z,16.46
2023-05-15T03:10:14.909Z,16.46
2023-05-15T03:12:51.926Z,16.43
2023-05-15T03:15:29.588Z,16.40
2023-05-15T03:18:07.702Z,16.37
2023-05-15T03:20:46.020Z,16.37
2023-05-15T03:23:23.776Z,16.34
2023-05-15T03:26:00.737Z,16.31
2023-05-15T03:28:37.830Z,16.19
2023-05-15T03:31:15.450Z,16.29
2023-05-15T03:33:53.043Z,16.28
2023-05-15T03:36:29.938Z,16.19
2023-05-15T03:39:07.253Z,16.24
2023-05-15T03:41:40.092Z,16.24
2023-05-15T03:44:14.191Z,16.22
2023-05-15T03:46:51.052Z,16.23
2023-05-15T03:49:28.250Z,16.22
2023-05-15T03:52:05.865Z,16.11
2023-05-15T03:54:44.481Z,16.12
2023-05-15T03:57:22.155Z,16.13
2023-05-15T03:59:59.064Z,16.15
2023-05-15T04:02:36.994Z,16.18
2023-05-15T04:05:12.458Z,16.17
2023-05-15T04:07:49.712Z,16.17
2023-05-15T04:10:26.462Z,16.17
2023-05-15T04:12:56.672Z,16.18
2023-05-15T04:15:33.913Z,16.20
2023-05-15T04:18:11.703Z,16.20
2023-05-15T04:20:47.974Z,16.20
2023-05-15T04:23:25.324Z,16.21
2023-05-15T04:26:02.822Z,16.19
2023-05-15T04:28:46.692Z,16.20
2023-05-15T04:31:31.890Z,16.22
2023-05-15T04:34:08.207Z,16.25
2023-05-15T04:36:45.190Z,16.22
2023-05-15T04:39:22.136Z,16.19
2023-05-15T04:41:59.039Z,15.94
2023-05-15T04:44:36.219Z,16.24
2023-05-15T04:47:12.377Z,16.27
2023-05-15T04:49:50.438Z,16.28
2023-05-15T04:52:25.616Z,16.31
2023-05-15T04:54:56.966Z,16.33
2023-05-15T04:57:34.259Z,16.36
2023-05-15T05:00:12.658Z,16.33
2023-05-15T05:02:49.905Z,16.41
2023-05-15T05:05:27.880Z,16.44
2023-05-15T05:08:04.808Z,16.47
2023-05-15T05:10:42.673Z,16.47
2023-05-15T05:13:16.017Z,16.49
2023-05-15T05:15:48.864Z,16.53
2023-05-15T05:18:19.215Z,16.58
2023-05-15T05:21:02.379Z,16.62
2023-05-15T05:23:37.322Z,16.67
2023-05-15T05:26:14.412Z,16.68
2023-05-15T05:28:51.012Z,16.71
2023-05-15T05:31:28.411Z,16.73
2023-05-15T05:34:06.905Z,16.75
2023-05-15T05:36:43.415Z,16.78
2023-05-15T05:39:20.755Z,16.84
2023-05-15T05:41:58.298Z,16.88
2023-05-15T05:44:35.018Z,16.94
2023-05-15T05:47:13.153Z,16.98
2023-05-15T05:49:50.357Z,17.04
2023-05-15T05:52:20.847Z,17.03
2023-05-15T05:54:57.972Z,17.08
2023-05-15T05:57:35.332Z,17.14
2023-05-15T06:00:13.617Z,17.13
2023-05-15T06:02:49.110Z,17.15
2023-05-15T06:05:31.308Z,17.16
2023-05-15T06:08:09.672Z,17.22
2023-05-15T06:10:46.695Z,17.19
2023-05-15T06:13:23.488Z,17.07
2023-05-15T06:16:01.004Z,17.07
2023-05-15T06:18:38.105Z,17.01
2023-05-15T06:21:15.728Z,16.93
2023-05-15T06:23:52.839Z,16.83
2023-05-15T06:26:31.556Z,16.74
2023-05-15T06:29:04.032Z,16.68
2023-05-15T06:31:39.290Z,16.59
2023-05-15T06:34:16.584Z,16.41
2023-05-15T06:36:54.535Z,16.33
2023-05-15T06:39:32.828Z,16.25
2023-05-15T06:42:11.422Z,16.13
2023-05-15T06:44:48.020Z,16.05
2023-05-15T06:47:25.820Z,15.92
2023-05-15T06:50:03.517Z,15.84
2023-05-15T06:52:40.682Z,15.71
2023-05-15T06:55:18.093Z,15.63
2023-05-15T06:57:48.343Z,15.56
2023-05-15T07:00:20.874Z,15.44
2023-05-15T07:02:57.702Z,15.39
2023-05-15T07:05:34.714Z,15.32
2023-05-15T07:08:12.215Z,15.17
2023-05-15T07:10:49.642Z,15.19
2023-05-15T07:13:27.312Z,15.10
2023-05-15T07:16:04.542Z,15.01
2023-05-15T07:18:42.193Z,14.94
2023-05-15T07:21:19.456Z,14.84
2023-05-15T07:23:56.921Z,14.77
2023-05-15T07:26:43.621Z,14.72
2023-05-15T07:29:26.119Z,14.71
2023-05-15T07:32:03.835Z,14.67
2023-05-15T07:34:43.044Z,14.63
2023-05-15T07:37:21.814Z,14.74
2023-05-15T07:39:52.640Z,14.72
2023-05-15T07:42:31.453Z,14.69
2023-05-15T07:45:02.192Z,14.67
2023-05-15T07:47:39.969Z,14.71
2023-05-15T07:50:15.849Z,14.67
2023-05-15T07:52:52.163Z,14.66
2023-05-15T07:55:29.366Z,14.67
2023-05-15T07:58:08.470Z,14.69
2023-05-15T08:00:39.217Z,14.74
2023-05-15T08:03:17.522Z,14.73
2023-05-15T08:05:54.691Z,14.89
2023-05-15T08:08:26.096Z,14.98
2023-05-15T08:11:02.521Z,14.99
2023-05-15T08:13:40.070Z,15.11
2023-05-15T08:16:11.841Z,15.23
2023-05-15T08:18:55.667Z,15.26
2023-05-15T08:21:33.160Z,15.12
2023-05-15T08:24:12.976Z,15.10
2023-05-15T08:26:50.663Z,15.10
2023-05-15T08:29:28.104Z,15.08
2023-05-15T08:32:06.769Z,15.12
2023-05-15T08:34:43.785Z,15.08
2023-05-15T08:37:21.702Z,15.00
2023-05-15T08:39:58.992Z,15.14
2023-05-15T08:42:47.360Z,15.15
2023-05-15T08:45:24.771Z,15.12
2023-05-15T08:48:03.517Z,15.07
2023-05-15T08:50:44.579Z,15.08
2023-05-15T08:53:23.264Z,15.18
2023-05-15T08:56:01.321Z,15.08
2023-05-15T08:58:38.183Z,14.92
2023-05-15T09:01:14.901Z,14.81
2023-05-15T09:03:47.878Z,14.73
2023-05-15T09:06:25.915Z,14.66
2023-05-15T09:09:06.747Z,14.61
2023-05-15T09:11:44.707Z,14.50
2023-05-15T09:14:15.922Z,14.38
2023-05-15T09:16:53.783Z,14.33
2023-05-15T09:19:30.445Z,14.31
2023-05-15T09:22:26.319Z,14.20
2023-05-15T09:25:03.714Z,14.11
2023-05-15T09:27:46.772Z,14.09
2023-05-15T09:30:24.765Z,13.95
2023-05-15T09:33:05.068Z,14.00
2023-05-15T09:35:43.301Z,13.99
2023-05-15T09:38:22.235Z,14.01
2023-05-15T09:41:06.565Z,14.00
2023-05-15T09:43:46.051Z,13.98
2023-05-15T09:46:23.783Z,14.02
2023-05-15T09:49:04.333Z,14.01
2023-05-15T09:51:39.805Z,13.97
2023-05-15T09:54:26.043Z,13.92
2023-05-15T09:57:13.507Z,13.83
2023-05-15T09:59:49.762Z,13.82
2023-05-15T10:02:35.761Z,13.92
2023-05-15T10:05:06.838Z,14.01
2023-05-15T10:07:43.556Z,14.05
2023-05-15T10:10:22.237Z,14.12
2023-05-15T10:13:03.043Z,14.25
2023-05-15T10:15:41.201Z,14.30
2023-05-15T10:18:20.692Z,14.39
2023-05-15T10:21:02.161Z,14.45
2023-05-15T10:23:45.609Z,14.42
2023-05-15T10:26:43.650Z,14.40
2023-05-15T10:29:27.033Z,14.42
2023-05-15T10:32:06.272Z,14.41
2023-05-15T10:34:44.319Z,14.40
2023-05-15T10:37:22.165Z,14.46
2023-05-15T10:40:00.515Z,14.51
2023-05-15T10:42:40.068Z,14.53
2023-05-15T10:45:17.121Z,14.49
2023-05-15T10:47:49.419Z,14.39
2023-05-15T10:50:27.819Z,14.38
2023-05-15T10:53:06.815Z,14.39
2023-05-15T10:55:46.711Z,14.35
2023-05-15T10:58:27.351Z,14.32
2023-05-15T11:01:05.349Z,14.25
2023-05-15T11:03:49.429Z,14.23
2023-05-15T11:06:34.841Z,14.21
2023-05-15T11:09:38.157Z,14.17
2023-05-15T11:12:16.088Z,14.14
2023-05-15T11:15:01.248Z,14.16
2023-05-15T11:18:00.008Z,14.10
2023-05-15T11:21:05.716Z,14.08
2023-05-15T11:23:42.828Z,14.00
2023-05-15T11:26:34.255Z,13.92
2023-05-15T11:29:36.425Z,13.89
2023-05-15T11:33:09.212Z,13.90
2023-05-15T11:35:50.039Z,13.90
2023-05-15T11:38:29.371Z,13.87
2023-05-15T11:41:05.808Z,13.83
2023-05-15T11:43:44.076Z,13.73
2023-05-15T11:46:22.404Z,13.76
2023-05-15T11:48:59.440Z,13.75
2023-05-15T11:51:44.644Z,13.83
2023-05-15T11:54:21.887Z,13.81
2023-05-15T11:57:00.545Z,13.75
2023-05-15T11:59:37.430Z,13.72
2023-05-15T12:02:14.489Z,13.73
2023-05-15T12:04:51.298Z,13.74
2023-05-15T12:07:30.245Z,13.75
2023-05-15T12:10:06.987Z,13.74
2023-05-15T12:12:47.127Z,13.67
2023-05-15T12:15:19.419Z,13.63
2023-05-15T12:17:52.121Z,13.64
2023-05-15T12:20:29.848Z,13.66
2023-05-15T12:23:08.468Z,13.68
2023-05-15T12:25:45.356Z,13.67
2023-05-15T12:28:23.225Z,13.69
2023-05-15T12:31:01.659Z,13.70
2023-05-15T12:33:40.078Z,13.71
2023-05-15T12:36:21.949Z,13.77
2023-05-15T12:39:00.434Z,13.85
2023-05-15T12:41:39.362Z,13.85
2023-05-15T12:44:20.320Z,13.91
2023-05-15T12:46:56.173Z,13.90
2023-05-15T12:49:37.197Z,13.92
2023-05-15T12:52:12.029Z,13.93
2023-05-15T12:54:49.371Z,13.88
2023-05-15T12:57:20.895Z,13.82
2023-05-15T12:59:51.860Z,13.87
2023-05-15T13:02:30.029Z,13.90
2023-05-15T13:05:11.510Z,13.86
2023-05-15T13:07:49.571Z,13.84
2023-05-15T13:10:27.262Z,13.83
2023-05-15T13:13:05.343Z,13.89
2023-05-15T13:15:45.000Z,13.93
2023-05-15T13:18:22.072Z,13.94
2023-05-15T13:20:59.797Z,13.90
2023-05-15T13:23:37.312Z,13.87
2023-05-15T13:26:16.121Z,13.89
2023-05-15T13:28:53.485Z,13.95
2023-05-15T13:31:32.842Z,14.02
2023-05-15T13:34:11.855Z,14.06
2023-05-15T13:36:49.478Z,14.05
2023-05-15T13:39:26.601Z,14.04
2023-05-15T13:42:04.043Z,14.06
2023-05-15T13:44:36.505Z,14.05
2023-05-15T13:47:13.380Z,14.04
2023-05-15T13:49:51.862Z,14.05
2023-05-15T13:52:29.632Z,14.19
2023-05-15T13:55:08.198Z,14.20
2023-05-15T13:57:46.536Z,14.20
2023-05-15T14:00:17.643Z,14.24
2023-05-15T14:02:54.925Z,14.30
2023-05-15T14:05:31.826Z,14.33
2023-05-15T14:08:09.948Z,14.31
2023-05-15T14:10:48.357Z,14.43
2023-05-15T14:13:26.412Z,14.48
2023-05-15T14:15:57.211Z,14.52
2023-05-15T14:18:34.391Z,14.53
2023-05-15T14:21:12.698Z,14.41
2023-05-15T14:23:50.412Z,14.56
2023-05-15T14:26:28.983Z,14.58
2023-05-15T14:29:07.854Z,14.58
2023-05-15T14:31:45.965Z,14.60
2023-05-15T14:34:22.849Z,14.59
2023-05-15T14:37:00.583Z,14.59
2023-05-15T14:39:31.725Z,14.59
2023-05-15T14:42:10.871Z,14.68
2023-05-15T14:44:48.957Z,14.71
2023-05-15T14:47:28.739Z,14.81
2023-05-15T14:49:59.720Z,14.88
2023-05-15T14:52:35.332Z,14.89
2023-05-15T14:55:15.695Z,14.95
2023-05-15T14:57:54.283Z,14.92
2023-05-15T15:00:31.852Z,14.86
2023-05-15T15:03:11.158Z,14.84
2023-05-15T15:05:49.394Z,14.87
2023-05-15T15:08:27.608Z,14.87
2023-05-15T15:11:06.768Z,14.87
2023-05-15T15:13:44.766Z,14.89
2023-05-15T15:16:23.191Z,14.89
2023-05-15T15:19:00.677Z,14.92
2023-05-15T15:21:35.002Z,14.95
2023-05-15T15:24:13.064Z,15.06
2023-05-15T15:26:50.925Z,15.20
2023-05-15T15:29:23.750Z,15.26
2023-05-15T15:31:56.588Z,15.38
2023-05-15T15:34:33.945Z,15.39
2023-05-15T15:37:12.322Z,15.45
2023-05-15T15:39:50.310Z,15.53
2023-05-15T15:42:28.385Z,15.71
2023-05-15T15:45:07.441Z,15.84
2023-05-15T15:47:45.544Z,15.87
2023-05-15T15:50:22.808Z,15.99
2023-05-15T15:52:59.164Z,16.05
2023-05-15T15:55:29.874Z,16.09
2023-05-15T15:58:00.227Z,16.09
2023-05-15T16:00:37.122Z,16.08
2023-05-15T16:03:14.659Z,16.20
2023-05-15T16:05:52.118Z,16.29
2023-05-15T16:08:29.905Z,16.36
2023-05-15T16:11:07.604Z,16.39
2023-05-15T16:13:44.956Z,16.35
2023-05-15T16:16:19.941Z,16.27
2023-05-15T16:18:57.363Z,16.28
2023-05-15T16:21:36.847Z,16.21
2023-05-15T16:24:14.315Z,16.01
2023-05-15T16:26:51.811Z,16.07
2023-05-15T16:29:24.860Z,16.04
2023-05-15T16:31:58.988Z,15.99
2023-05-15T16:34:36.846Z,16.05
2023-05-15T16:37:14.378Z,16.16
2023-05-15T16:39:50.024Z,16.20
2023-05-15T16:42:28.222Z,16.30
2023-05-15T16:45:05.954Z,16.34
2023-05-15T16:47:46.461Z,16.30
2023-05-15T16:50:23.872Z,16.24
2023-05-15T16:53:02.371Z,16.22
2023-05-15T16:55:40.130Z,16.13
2023-05-15T16:58:18.065Z,16.03
2023-05-15T17:00:55.535Z,16.03
2023-05-15T17:03:33.164Z,16.00
2023-05-15T17:06:04.519Z,15.90
2023-05-15T17:08:40.120Z,15.86
2023-05-15T17:11:18.438Z,15.83
2023-05-15T17:13:55.629Z,15.78
2023-05-15T17:16:34.659Z,15.76
2023-05-15T17:19:06.903Z,15.71
2023-05-15T17:21:45.890Z,15.69
2023-05-15T17:24:16.914Z,15.67
2023-05-15T17:26:56.126Z,15.66
2023-05-15T17:29:27.472Z,15.60
2023-05-15T17:32:00.905Z,15.60
2023-05-15T17:34:39.987Z,15.61
2023-05-15T17:37:17.939Z,15.57
2023-05-15T17:39:55.874Z,15.53
2023-05-15T17:42:32.674Z,15.47
2023-05-15T17:45:12.772Z,15.45
2023-05-15T17:47:50.983Z,15.44
2023-05-15T17:50:29.814Z,15.42
2023-05-15T17:53:02.863Z,15.37
2023-05-15T17:55:40.998Z,15.29
2023-05-15T17:58:18.548Z,15.24
2023-05-15T18:00:57.617Z,15.26
2023-05-15T18:03:35.534Z,15.28
2023-05-15T18:06:14.084Z,15.29
2023-05-15T18:08:48.028Z,15.25
2023-05-15T18:11:22.760Z,15.26
2023-05-15T18:14:01.113Z,15.23
2023-05-15T18:16:39.451Z,15.23
2023-05-15T18:19:18.451Z,15.20
2023-05-15T18:21:57.891Z,15.15
2023-05-15T18:24:36.074Z,15.19
2023-05-15T18:27:14.238Z,15.12
2023-05-15T18:29:52.646Z,15.11
2023-05-15T18:32:30.737Z,15.08
2023-05-15T18:35:00.891Z,15.08
2023-05-15T18:37:39.484Z,15.11
2023-05-15T18:40:13.829Z,15.11
2023-05-15T18:42:43.828Z,15.10
2023-05-15T18:45:23.096Z,15.10
2023-05-15T18:48:01.329Z,15.03
2023-05-15T18:50:40.744Z,14.93
2023-05-15T18:53:18.796Z,14.92
2023-05-15T18:55:57.014Z,14.89
2023-05-15T18:58:35.885Z,14.84
2023-05-15T19:01:06.311Z,14.77
2023-05-15T19:03:44.826Z,14.77
2023-05-15T19:06:23.328Z,14.76
2023-05-15T19:09:03.629Z,14.70
2023-05-15T19:11:41.609Z,14.63
2023-05-15T19:14:20.276Z,14.52
2023-05-15T19:16:58.886Z,14.42
2023-05-15T19:19:37.432Z,14.38
2023-05-15T19:22:17.793Z,14.24
2023-05-15T19:24:57.524Z,14.23
2023-05-15T19:27:37.879Z,14.30
2023-05-15T19:30:17.003Z,14.31
2023-05-15T19:32:56.048Z,14.28
2023-05-15T19:35:27.444Z,14.29
2023-05-15T19:38:03.901Z,14.25
2023-05-15T19:40:45.991Z,14.17
2023-05-15T19:43:24.288Z,14.12
2023-05-15T19:46:01.196Z,14.09
2023-05-15T19:48:40.012Z,14.08
2023-05-15T19:51:18.331Z,14.10
2023-05-15T19:53:48.935Z,14.04
2023-05-15T19:56:26.959Z,13.99
2023-05-15T19:59:05.486Z,13.95
2023-05-15T20:01:43.764Z,13.93
2023-05-15T20:04:22.623Z,13.95
2023-05-15T20:06:58.698Z,13.95
2023-05-15T20:09:29.712Z,14.09
2023-05-15T20:12:06.416Z,14.20
2023-05-15T20:14:50.264Z,14.15
2023-05-15T20:17:25.281Z,13.99
2023-05-15T20:20:10.154Z,13.96
2023-05-15T20:22:45.369Z,13.97
2023-05-15T20:25:18.815Z,13.98
2023-05-15T20:27:57.474Z,13.96
2023-05-15T20:30:35.336Z,13.96
2023-05-15T20:33:09.900Z,14.00
2023-05-15T20:35:47.805Z,13.99
2023-05-15T20:38:28.623Z,13.96
2023-05-15T20:41:04.305Z,13.92
2023-05-15T20:43:34.667Z,13.91
2023-05-15T20:46:11.045Z,13.91
2023-05-15T20:48:46.200Z,13.90
2023-05-15T20:51:24.273Z,13.92
2023-05-15T20:54:02.578Z,13.93
2023-05-15T20:56:41.291Z,13.90
2023-05-15T20:59:18.671Z,13.92
2023-05-15T21:01:56.111Z,14.00
2023-05-15T21:04:38.850Z,14.01
2023-05-15T21:07:20.832Z,13.95
2023-05-15T21:09:58.669Z,13.87
2023-05-15T21:12:35.884Z,13.84
2023-05-15T21:15:14.144Z,13.92
2023-05-15T21:17:51.617Z,13.94
2023-05-15T21:20:29.505Z,13.91
2023-05-15T21:23:07.940Z,13.95
2023-05-15T21:25:46.812Z,13.96
2023-05-15T21:28:24.833Z,13.99
2023-05-15T21:31:08.572Z,14.07
2023-05-15T21:33:46.534Z,14.07
2023-05-15T21:36:24.310Z,14.02
2023-05-15T21:39:01.424Z,14.01
2023-05-15T21:41:36.360Z,14.05
2023-05-15T21:44:12.465Z,14.08
2023-05-15T21:46:48.053Z,14.07
2023-05-15T21:49:25.923Z,13.99
2023-05-15T21:52:02.708Z,14.01
2023-05-15T21:54:39.495Z,14.08
2023-05-15T21:57:16.833Z,14.01
2023-05-15T21:59:54.725Z,14.03
2023-05-15T22:02:25.093Z,14.01
2023-05-15T22:05:02.559Z,13.99
2023-05-15T22:07:32.592Z,13.97
2023-05-15T22:10:09.242Z,13.94
2023-05-15T22:12:39.420Z,13.96
2023-05-15T22:15:17.433Z,13.94
2023-05-15T22:17:54.710Z,13.92
2023-05-15T22:20:32.268Z,13.86
2023-05-15T22:23:11.203Z,13.80
2023-05-15T22:25:49.833Z,13.72
2023-05-15T22:28:19.865Z,13.65
2023-05-15T22:30:53.015Z,13.59
2023-05-15T22:33:29.599Z,13.55
2023-05-15T22:36:08.076Z,13.53
2023-05-15T22:38:45.258Z,13.54
2023-05-15T22:41:24.694Z,13.58
2023-05-15T22:44:02.212Z,13.64
2023-05-15T22:46:40.036Z,13.66
2023-05-15T22:49:19.920Z,13.68
2023-05-15T22:52:01.815Z,13.68
2023-05-15T22:54:39.189Z,13.59
2023-05-15T22:57:18.534Z,13.63
2023-05-15T22:59:56.457Z,13.57
2023-05-15T23:02:34.590Z,13.53
2023-05-15T23:05:11.432Z,13.47
2023-05-15T23:07:49.031Z,13.40
2023-05-15T23:10:24.427Z,13.38
2023-05-15T23:12:57.134Z,13.37
2023-05-15T23:15:31.669Z,13.36
2023-05-15T23:18:11.182Z,13.36
2023-05-15T23:20:48.845Z,13.31
2023-05-15T23:23:23.211Z,13.33
2023-05-15T23:26:00.830Z,13.28
2023-05-15T23:28:38.585Z,13.25
2023-05-15T23:31:14.766Z,13.19
2023-05-15T23:33:54.553Z,13.14
2023-05-15T23:36:31.880Z,13.08
2023-05-15T23:39:09.387Z,13.05
2023-05-15T23:41:45.905Z,13.03
2023-05-15T23:44:22.621Z,13.00
2023-05-15T23:46:53.341Z,12.97
2023-05-15T23:49:33.080Z,12.90
2023-05-15T23:52:10.875Z,12.87
2023-05-15T23:54:47.491Z,12.82
2023-05-15T23:57:24.190Z,12.79
